Overview Statistics Trail Chart Weather Telemetry Raw packets
 

This is the latest recevied weather packets stored in our database for station/object K6CED. If no packets are shown the sender has not sent any weather packets the latest 10 day(s).

<< 66 67 68 69 70 71 72 >>
Time Temp. Humidity Pressure Rain* Wind** Luminosity Snow
1788204113 30.56° C 38% 1016.5 hPa 0 mm - 819 W/m² -
1788203809 30° C 40% 1016.5 hPa 0 mm - 824 W/m² -
1788203505 30° C 41% 1016.6 hPa 0 mm - 832 W/m² -
1788203199 30° C 40% 1016.5 hPa 0 mm - 836 W/m² -
1788202898 30° C 40% 1016.5 hPa 0 mm - 839 W/m² -
1788202594 29.44° C 43% 1016.5 hPa 0 mm - 837 W/m² -
1788202290 29.44° C 46% 1016.7 hPa 0 mm - 836 W/m² -
1788201990 28.33° C 48% 1016.4 hPa 0 mm - 827 W/m² -
1788201686 28.89° C 48% 1016.7 hPa 0 mm - 822 W/m² -
1788201385 28.89° C 48% 1016.5 hPa 0 mm - 817 W/m² -
1788201084 28.33° C 49% 1016.7 hPa 0 mm - 813 W/m² -
1788200783 27.78° C 53% 1016.6 hPa 0 mm - 807 W/m² -
1788200479 28.33° C 51% 1016.6 hPa 0 mm - 797 W/m² -
1788200174 27.78° C 51% 1016.7 hPa 0 mm - 792 W/m² -
1788199874 27.22° C 54% 1017 hPa 0 mm - 785 W/m² -
1788199575 27.78° C 53% 1016.7 hPa 0 mm - 777 W/m² -
1788199264 27.78° C 55% 1016.9 hPa 0 mm - 765 W/m² -
1788198958 27.22° C 57% 1016.7 hPa 0 mm - 754 W/m² -
1788198656 27.78° C 55% 1016.6 hPa 0 mm - 744 W/m² -
1788198350 27.78° C 57% 1016.7 hPa 0 mm - 725 W/m² -
1788198050 27.22° C 59% 1016.7 hPa 0 mm - 714 W/m² -
1788197748 27.22° C 59% 1016.7 hPa 0 mm - 699 W/m² -
1788197446 27.22° C 60% 1016.9 hPa 0 mm - 689 W/m² -
1788197140 26.11° C 63% 1016.7 hPa 0 mm - 677 W/m² -
1788196835 26.11° C 61% 1016.7 hPa 0 mm - 663 W/m² -

* Rain latest hour (hover to see other rain measurements)
** Current wind speed in m/s (hover to see current wind gust speed)